sensor_id;sensor_type;location;lat;lon;timestamp;P1;durP1;ratioP1;P2;durP2;ratioP2
11245;SDS011;59870;50.106;8.580;2022-08-01T00:00:47;1.73;;;1.63;;
11245;SDS011;59870;50.106;8.580;2022-08-01T00:03:14;1.80;;;1.70;;
11245;SDS011;59870;50.106;8.580;2022-08-01T00:05:42;1.83;;;1.73;;
11245;SDS011;59870;50.106;8.580;2022-08-01T00:08:11;1.97;;;1.87;;
11245;SDS011;59870;50.106;8.580;2022-08-01T00:10:38;1.77;;;1.77;;
11245;SDS011;59870;50.106;8.580;2022-08-01T00:13:06;1.93;;;1.70;;
11245;SDS011;59870;50.106;8.580;2022-08-01T00:15:34;1.53;;;1.43;;
11245;SDS011;59870;50.106;8.580;2022-08-01T00:18:02;2.70;;;1.70;;
11245;SDS011;59870;50.106;8.580;2022-08-01T00:20:29;1.60;;;1.50;;
11245;SDS011;59870;50.106;8.580;2022-08-01T00:22:57;2.70;;;1.70;;
11245;SDS011;59870;50.106;8.580;2022-08-01T00:25:24;2.67;;;1.60;;
11245;SDS011;59870;50.106;8.580;2022-08-01T00:28:00;1.80;;;1.70;;
11245;SDS011;59870;50.106;8.580;2022-08-01T00:30:30;1.50;;;1.40;;
11245;SDS011;59870;50.106;8.580;2022-08-01T00:32:57;3.07;;;1.87;;
11245;SDS011;59870;50.106;8.580;2022-08-01T00:35:25;1.53;;;1.40;;
11245;SDS011;59870;50.106;8.580;2022-08-01T00:37:53;3.70;;;1.53;;
11245;SDS011;59870;50.106;8.580;2022-08-01T00:40:21;1.53;;;1.43;;
11245;SDS011;59870;50.106;8.580;2022-08-01T00:42:49;2.00;;;1.73;;
11245;SDS011;59870;50.106;8.580;2022-08-01T00:45:16;2.40;;;1.40;;
11245;SDS011;59870;50.106;8.580;2022-08-01T00:47:44;1.97;;;1.70;;
11245;SDS011;59870;50.106;8.580;2022-08-01T00:50:11;2.20;;;1.47;;
11245;SDS011;59870;50.106;8.580;2022-08-01T00:52:39;1.70;;;1.57;;
11245;SDS011;59870;50.106;8.580;2022-08-01T00:55:08;1.70;;;1.60;;
11245;SDS011;59870;50.106;8.580;2022-08-01T00:57:41;2.70;;;1.60;;
11245;SDS011;59870;50.106;8.580;2022-08-01T01:00:28;2.67;;;1.30;;
11245;SDS011;59870;50.106;8.580;2022-08-01T01:02:59;1.73;;;1.63;;
11245;SDS011;59870;50.106;8.580;2022-08-01T01:05:27;1.50;;;1.40;;
11245;SDS011;59870;50.106;8.580;2022-08-01T01:10:32;1.70;;;1.60;;
11245;SDS011;59870;50.106;8.580;2022-08-01T01:13:14;1.67;;;1.40;;
11245;SDS011;59870;50.106;8.580;2022-08-01T01:15:57;1.80;;;1.70;;
11245;SDS011;59870;50.106;8.580;2022-08-01T01:18:30;1.50;;;1.40;;
11245;SDS011;59870;50.106;8.580;2022-08-01T01:26:57;2.43;;;1.43;;
11245;SDS011;59870;50.106;8.580;2022-08-01T01:32:25;1.30;;;1.30;;
11245;SDS011;59870;50.106;8.580;2022-08-01T01:34:57;1.67;;;1.40;;
11245;SDS011;59870;50.106;8.580;2022-08-01T01:37:28;1.93;;;1.70;;
11245;SDS011;59870;50.106;8.580;2022-08-01T01:39:59;1.40;;;1.30;;
11245;SDS011;59870;50.106;8.580;2022-08-01T01:42:29;2.13;;;1.50;;
11245;SDS011;59870;50.106;8.580;2022-08-01T01:44:58;1.93;;;1.57;;
11245;SDS011;59870;50.106;8.580;2022-08-01T01:47:29;1.40;;;1.30;;
11245;SDS011;59870;50.106;8.580;2022-08-01T01:49:59;1.60;;;1.50;;
11245;SDS011;59870;50.106;8.580;2022-08-01T01:52:28;1.40;;;1.40;;
11245;SDS011;59870;50.106;8.580;2022-08-01T01:54:58;1.33;;;1.20;;
11245;SDS011;59870;50.106;8.580;2022-08-01T01:57:28;1.43;;;1.33;;
11245;SDS011;59870;50.106;8.580;2022-08-01T01:59:57;2.20;;;1.40;;
11245;SDS011;59870;50.106;8.580;2022-08-01T02:02:26;1.57;;;1.47;;
11245;SDS011;59870;50.106;8.580;2022-08-01T02:04:54;1.50;;;1.40;;
11245;SDS011;59870;50.106;8.580;2022-08-01T02:07:25;1.50;;;1.40;;
11245;SDS011;59870;50.106;8.580;2022-08-01T02:09:54;1.77;;;1.67;;
11245;SDS011;59870;50.106;8.580;2022-08-01T02:12:23;1.50;;;1.40;;
11245;SDS011;59870;50.106;8.580;2022-08-01T02:14:52;3.53;;;1.50;;
11245;SDS011;59870;50.106;8.580;2022-08-01T02:17:20;1.83;;;1.70;;
11245;SDS011;59870;50.106;8.580;2022-08-01T02:19:51;1.50;;;1.40;;
11245;SDS011;59870;50.106;8.580;2022-08-01T02:25:08;1.37;;;1.27;;
11245;SDS011;59870;50.106;8.580;2022-08-01T02:28:01;1.50;;;1.40;;
11245;SDS011;59870;50.106;8.580;2022-08-01T02:30:36;2.03;;;1.50;;
11245;SDS011;59870;50.106;8.580;2022-08-01T02:33:19;4.73;;;1.50;;
11245;SDS011;59870;50.106;8.580;2022-08-01T02:35:50;2.60;;;1.33;;
11245;SDS011;59870;50.106;8.580;2022-08-01T02:38:41;1.77;;;1.67;;
11245;SDS011;59870;50.106;8.580;2022-08-01T02:41:11;4.10;;;1.43;;
11245;SDS011;59870;50.106;8.580;2022-08-01T02:43:45;1.50;;;1.30;;
11245;SDS011;59870;50.106;8.580;2022-08-01T02:46:23;1.13;;;1.13;;
11245;SDS011;59870;50.106;8.580;2022-08-01T02:48:58;1.30;;;1.20;;
11245;SDS011;59870;50.106;8.580;2022-08-01T02:51:27;1.60;;;1.50;;
11245;SDS011;59870;50.106;8.580;2022-08-01T02:53:56;1.50;;;1.40;;
11245;SDS011;59870;50.106;8.580;2022-08-01T02:56:26;1.63;;;1.53;;
11245;SDS011;59870;50.106;8.580;2022-08-01T02:59:12;1.70;;;1.60;;
11245;SDS011;59870;50.106;8.580;2022-08-01T03:01:48;1.73;;;1.63;;
11245;SDS011;59870;50.106;8.580;2022-08-01T03:04:17;1.30;;;1.20;;
11245;SDS011;59870;50.106;8.580;2022-08-01T03:06:46;1.43;;;1.37;;
11245;SDS011;59870;50.106;8.580;2022-08-01T03:09:14;1.73;;;1.63;;
11245;SDS011;59870;50.106;8.580;2022-08-01T03:11:43;1.67;;;1.43;;
11245;SDS011;59870;50.106;8.580;2022-08-01T03:14:13;2.47;;;1.47;;
11245;SDS011;59870;50.106;8.580;2022-08-01T03:16:43;1.50;;;1.40;;
11245;SDS011;59870;50.106;8.580;2022-08-01T03:19:13;1.57;;;1.50;;
11245;SDS011;59870;50.106;8.580;2022-08-01T03:21:42;1.90;;;1.57;;
11245;SDS011;59870;50.106;8.580;2022-08-01T03:24:11;1.60;;;1.50;;
11245;SDS011;59870;50.106;8.580;2022-08-01T03:26:40;1.30;;;1.23;;
11245;SDS011;59870;50.106;8.580;2022-08-01T03:29:10;1.33;;;1.33;;
11245;SDS011;59870;50.106;8.580;2022-08-01T03:31:43;1.70;;;1.60;;
11245;SDS011;59870;50.106;8.580;2022-08-01T03:34:11;1.83;;;1.73;;
11245;SDS011;59870;50.106;8.580;2022-08-01T03:36:44;1.73;;;1.63;;
11245;SDS011;59870;50.106;8.580;2022-08-01T03:39:28;1.97;;;1.63;;
11245;SDS011;59870;50.106;8.580;2022-08-01T03:42:01;1.80;;;1.40;;
11245;SDS011;59870;50.106;8.580;2022-08-01T03:44:39;1.60;;;1.50;;
11245;SDS011;59870;50.106;8.580;2022-08-01T03:47:09;2.47;;;1.87;;
11245;SDS011;59870;50.106;8.580;2022-08-01T03:49:40;1.87;;;1.77;;
11245;SDS011;59870;50.106;8.580;2022-08-01T03:52:09;1.50;;;1.50;;
11245;SDS011;59870;50.106;8.580;2022-08-01T03:54:59;2.10;;;2.00;;
11245;SDS011;59870;50.106;8.580;2022-08-01T03:57:33;1.80;;;1.70;;
11245;SDS011;59870;50.106;8.580;2022-08-01T04:00:04;1.50;;;1.50;;
11245;SDS011;59870;50.106;8.580;2022-08-01T04:02:38;2.70;;;1.40;;
11245;SDS011;59870;50.106;8.580;2022-08-01T04:05:07;3.03;;;1.80;;
11245;SDS011;59870;50.106;8.580;2022-08-01T04:07:34;2.07;;;1.63;;
11245;SDS011;59870;50.106;8.580;2022-08-01T04:10:10;2.73;;;1.67;;
11245;SDS011;59870;50.106;8.580;2022-08-01T04:12:38;3.23;;;1.60;;
11245;SDS011;59870;50.106;8.580;2022-08-01T04:15:06;1.97;;;1.83;;
11245;SDS011;59870;50.106;8.580;2022-08-01T04:17:33;1.70;;;1.60;;
11245;SDS011;59870;50.106;8.580;2022-08-01T04:20:01;1.60;;;1.50;;
11245;SDS011;59870;50.106;8.580;2022-08-01T04:22:28;2.23;;;1.80;;
11245;SDS011;59870;50.106;8.580;2022-08-01T04:24:57;1.80;;;1.70;;
11245;SDS011;59870;50.106;8.580;2022-08-01T04:27:28;1.87;;;1.77;;
11245;SDS011;59870;50.106;8.580;2022-08-01T04:30:18;1.77;;;1.67;;
11245;SDS011;59870;50.106;8.580;2022-08-01T04:32:58;4.53;;;1.80;;
11245;SDS011;59870;50.106;8.580;2022-08-01T04:35:28;1.87;;;1.77;;
11245;SDS011;59870;50.106;8.580;2022-08-01T04:38:21;1.90;;;1.80;;
11245;SDS011;59870;50.106;8.580;2022-08-01T04:40:54;3.17;;;1.90;;
11245;SDS011;59870;50.106;8.580;2022-08-01T04:43:22;1.73;;;1.63;;
11245;SDS011;59870;50.106;8.580;2022-08-01T04:45:51;5.23;;;2.07;;
11245;SDS011;59870;50.106;8.580;2022-08-01T04:48:19;1.70;;;1.60;;
11245;SDS011;59870;50.106;8.580;2022-08-01T04:50:49;1.97;;;1.67;;
11245;SDS011;59870;50.106;8.580;2022-08-01T04:53:18;1.90;;;1.50;;
11245;SDS011;59870;50.106;8.580;2022-08-01T04:55:48;2.10;;;2.00;;
11245;SDS011;59870;50.106;8.580;2022-08-01T04:58:16;2.03;;;1.50;;
11245;SDS011;59870;50.106;8.580;2022-08-01T05:00:47;1.67;;;1.57;;
11245;SDS011;59870;50.106;8.580;2022-08-01T05:03:15;1.90;;;1.80;;
11245;SDS011;59870;50.106;8.580;2022-08-01T05:05:42;3.00;;;2.13;;
11245;SDS011;59870;50.106;8.580;2022-08-01T05:08:10;2.53;;;1.63;;
11245;SDS011;59870;50.106;8.580;2022-08-01T05:10:37;1.80;;;1.70;;
11245;SDS011;59870;50.106;8.580;2022-08-01T05:13:05;1.60;;;1.53;;
11245;SDS011;59870;50.106;8.580;2022-08-01T05:15:34;3.07;;;1.90;;
11245;SDS011;59870;50.106;8.580;2022-08-01T05:18:03;2.43;;;2.03;;
11245;SDS011;59870;50.106;8.580;2022-08-01T05:21:02;2.10;;;1.90;;
11245;SDS011;59870;50.106;8.580;2022-08-01T05:23:30;1.67;;;1.57;;
11245;SDS011;59870;50.106;8.580;2022-08-01T05:26:10;2.10;;;1.80;;
11245;SDS011;59870;50.106;8.580;2022-08-01T05:28:41;1.80;;;1.70;;
11245;SDS011;59870;50.106;8.580;2022-08-01T05:31:09;1.50;;;1.50;;
11245;SDS011;59870;50.106;8.580;2022-08-01T05:33:37;2.20;;;1.87;;
11245;SDS011;59870;50.106;8.580;2022-08-01T05:36:04;3.30;;;1.80;;
11245;SDS011;59870;50.106;8.580;2022-08-01T05:38:32;2.33;;;1.87;;
11245;SDS011;59870;50.106;8.580;2022-08-01T05:40:59;2.00;;;1.77;;
11245;SDS011;59870;50.106;8.580;2022-08-01T05:43:27;1.70;;;1.60;;
11245;SDS011;59870;50.106;8.580;2022-08-01T05:45:55;1.83;;;1.50;;
11245;SDS011;59870;50.106;8.580;2022-08-01T05:48:22;2.10;;;1.93;;
11245;SDS011;59870;50.106;8.580;2022-08-01T05:50:50;1.73;;;1.63;;
11245;SDS011;59870;50.106;8.580;2022-08-01T05:53:24;4.50;;;1.70;;
11245;SDS011;59870;50.106;8.580;2022-08-01T05:55:51;1.63;;;1.53;;
11245;SDS011;59870;50.106;8.580;2022-08-01T05:58:19;2.27;;;1.83;;
11245;SDS011;59870;50.106;8.580;2022-08-01T06:00:46;2.07;;;1.80;;
11245;SDS011;59870;50.106;8.580;2022-08-01T06:03:14;1.90;;;1.80;;
11245;SDS011;59870;50.106;8.580;2022-08-01T06:05:41;2.40;;;2.03;;
11245;SDS011;59870;50.106;8.580;2022-08-01T06:08:08;5.17;;;2.27;;
11245;SDS011;59870;50.106;8.580;2022-08-01T06:10:36;2.30;;;2.20;;
11245;SDS011;59870;50.106;8.580;2022-08-01T06:13:03;3.27;;;2.10;;
11245;SDS011;59870;50.106;8.580;2022-08-01T06:15:32;5.23;;;2.10;;
11245;SDS011;59870;50.106;8.580;2022-08-01T06:17:59;2.10;;;1.90;;
11245;SDS011;59870;50.106;8.580;2022-08-01T06:20:27;2.27;;;2.03;;
11245;SDS011;59870;50.106;8.580;2022-08-01T06:22:54;2.33;;;2.13;;
11245;SDS011;59870;50.106;8.580;2022-08-01T06:25:22;2.23;;;2.03;;
11245;SDS011;59870;50.106;8.580;2022-08-01T06:27:49;4.37;;;2.23;;
11245;SDS011;59870;50.106;8.580;2022-08-01T06:30:17;2.30;;;1.87;;
11245;SDS011;59870;50.106;8.580;2022-08-01T06:32:46;2.40;;;2.20;;
11245;SDS011;59870;50.106;8.580;2022-08-01T06:35:14;2.40;;;1.80;;
11245;SDS011;59870;50.106;8.580;2022-08-01T06:37:42;2.30;;;2.10;;
11245;SDS011;59870;50.106;8.580;2022-08-01T06:40:11;2.90;;;2.20;;
11245;SDS011;59870;50.106;8.580;2022-08-01T06:42:43;2.40;;;2.20;;
11245;SDS011;59870;50.106;8.580;2022-08-01T06:45:13;1.83;;;1.73;;
11245;SDS011;59870;50.106;8.580;2022-08-01T06:47:41;2.00;;;1.90;;
11245;SDS011;59870;50.106;8.580;2022-08-01T06:50:14;5.00;;;2.10;;
11245;SDS011;59870;50.106;8.580;2022-08-01T06:52:41;2.47;;;2.10;;
11245;SDS011;59870;50.106;8.580;2022-08-01T06:55:09;2.27;;;2.17;;
11245;SDS011;59870;50.106;8.580;2022-08-01T06:57:44;2.63;;;2.53;;
11245;SDS011;59870;50.106;8.580;2022-08-01T07:00:13;3.77;;;3.57;;
11245;SDS011;59870;50.106;8.580;2022-08-01T07:02:42;3.97;;;3.67;;
11245;SDS011;59870;50.106;8.580;2022-08-01T07:05:30;4.17;;;3.77;;
11245;SDS011;59870;50.106;8.580;2022-08-01T07:07:58;3.77;;;3.57;;
11245;SDS011;59870;50.106;8.580;2022-08-01T07:10:25;3.60;;;3.37;;
11245;SDS011;59870;50.106;8.580;2022-08-01T07:12:53;4.07;;;3.80;;
11245;SDS011;59870;50.106;8.580;2022-08-01T07:15:20;3.67;;;3.20;;
11245;SDS011;59870;50.106;8.580;2022-08-01T07:17:53;3.40;;;3.30;;
11245;SDS011;59870;50.106;8.580;2022-08-01T07:20:20;4.17;;;3.77;;
11245;SDS011;59870;50.106;8.580;2022-08-01T07:22:48;4.40;;;3.77;;
11245;SDS011;59870;50.106;8.580;2022-08-01T07:25:16;4.20;;;3.90;;
11245;SDS011;59870;50.106;8.580;2022-08-01T07:27:45;4.00;;;3.80;;
11245;SDS011;59870;50.106;8.580;2022-08-01T07:30:13;4.13;;;3.73;;
11245;SDS011;59870;50.106;8.580;2022-08-01T07:32:40;4.43;;;3.60;;
11245;SDS011;59870;50.106;8.580;2022-08-01T07:35:08;3.83;;;3.63;;
11245;SDS011;59870;50.106;8.580;2022-08-01T07:37:35;3.70;;;3.50;;
11245;SDS011;59870;50.106;8.580;2022-08-01T07:40:15;4.13;;;3.93;;
11245;SDS011;59870;50.106;8.580;2022-08-01T07:42:44;3.77;;;3.47;;
11245;SDS011;59870;50.106;8.580;2022-08-01T07:45:12;3.80;;;3.50;;
11245;SDS011;59870;50.106;8.580;2022-08-01T07:47:41;4.33;;;4.03;;
11245;SDS011;59870;50.106;8.580;2022-08-01T07:50:09;3.73;;;3.47;;
11245;SDS011;59870;50.106;8.580;2022-08-01T07:52:36;3.50;;;3.30;;
11245;SDS011;59870;50.106;8.580;2022-08-01T07:55:04;3.60;;;3.40;;
11245;SDS011;59870;50.106;8.580;2022-08-01T07:57:32;3.63;;;3.40;;
11245;SDS011;59870;50.106;8.580;2022-08-01T07:59:59;3.93;;;3.63;;
11245;SDS011;59870;50.106;8.580;2022-08-01T08:02:29;3.60;;;3.37;;
11245;SDS011;59870;50.106;8.580;2022-08-01T08:04:57;3.53;;;3.43;;
11245;SDS011;59870;50.106;8.580;2022-08-01T08:07:24;3.47;;;3.17;;
11245;SDS011;59870;50.106;8.580;2022-08-01T08:09:52;4.00;;;3.70;;
11245;SDS011;59870;50.106;8.580;2022-08-01T08:12:19;3.67;;;3.47;;
11245;SDS011;59870;50.106;8.580;2022-08-01T08:14:56;4.27;;;3.87;;
11245;SDS011;59870;50.106;8.580;2022-08-01T08:17:25;4.10;;;3.70;;
11245;SDS011;59870;50.106;8.580;2022-08-01T08:19:53;3.63;;;3.43;;
11245;SDS011;59870;50.106;8.580;2022-08-01T08:22:20;4.07;;;3.80;;
11245;SDS011;59870;50.106;8.580;2022-08-01T08:24:47;3.93;;;3.70;;
11245;SDS011;59870;50.106;8.580;2022-08-01T08:27:15;4.63;;;3.90;;
11245;SDS011;59870;50.106;8.580;2022-08-01T08:29:45;6.50;;;4.27;;
11245;SDS011;59870;50.106;8.580;2022-08-01T08:32:12;3.53;;;3.43;;
11245;SDS011;59870;50.106;8.580;2022-08-01T08:34:40;3.50;;;3.30;;
11245;SDS011;59870;50.106;8.580;2022-08-01T08:37:07;4.27;;;4.07;;
11245;SDS011;59870;50.106;8.580;2022-08-01T08:39:36;4.57;;;4.10;;
11245;SDS011;59870;50.106;8.580;2022-08-01T08:42:08;4.17;;;3.87;;
11245;SDS011;59870;50.106;8.580;2022-08-01T08:44:37;7.33;;;4.10;;
11245;SDS011;59870;50.106;8.580;2022-08-01T08:47:11;4.90;;;4.50;;
11245;SDS011;59870;50.106;8.580;2022-08-01T08:49:46;5.70;;;4.57;;
11245;SDS011;59870;50.106;8.580;2022-08-01T08:52:17;4.27;;;4.07;;
11245;SDS011;59870;50.106;8.580;2022-08-01T08:54:47;4.33;;;4.03;;
11245;SDS011;59870;50.106;8.580;2022-08-01T08:57:15;4.23;;;4.03;;
11245;SDS011;59870;50.106;8.580;2022-08-01T08:59:47;4.47;;;4.17;;
11245;SDS011;59870;50.106;8.580;2022-08-01T09:02:15;4.43;;;4.13;;
11245;SDS011;59870;50.106;8.580;2022-08-01T09:04:43;4.07;;;3.77;;
11245;SDS011;59870;50.106;8.580;2022-08-01T09:07:10;4.33;;;4.13;;
11245;SDS011;59870;50.106;8.580;2022-08-01T09:09:38;4.17;;;3.87;;
11245;SDS011;59870;50.106;8.580;2022-08-01T09:12:08;3.80;;;3.60;;
11245;SDS011;59870;50.106;8.580;2022-08-01T09:14:43;4.23;;;4.03;;
11245;SDS011;59870;50.106;8.580;2022-08-01T09:17:12;3.60;;;3.27;;
11245;SDS011;59870;50.106;8.580;2022-08-01T09:19:41;3.47;;;3.27;;
11245;SDS011;59870;50.106;8.580;2022-08-01T09:22:21;3.67;;;3.47;;
11245;SDS011;59870;50.106;8.580;2022-08-01T09:24:57;3.77;;;3.57;;
11245;SDS011;59870;50.106;8.580;2022-08-01T09:27:32;3.43;;;3.23;;
11245;SDS011;59870;50.106;8.580;2022-08-01T09:30:06;3.70;;;3.50;;
11245;SDS011;59870;50.106;8.580;2022-08-01T09:32:52;3.80;;;3.30;;
11245;SDS011;59870;50.106;8.580;2022-08-01T09:41:00;3.30;;;3.00;;
11245;SDS011;59870;50.106;8.580;2022-08-01T09:43:28;3.35;;;3.15;;
11245;SDS011;59870;50.106;8.580;2022-08-01T09:45:59;3.63;;;3.43;;
11245;SDS011;59870;50.106;8.580;2022-08-01T09:48:31;3.70;;;3.50;;
11245;SDS011;59870;50.106;8.580;2022-08-01T09:50:59;4.20;;;3.85;;
11245;SDS011;59870;50.106;8.580;2022-08-01T09:53:48;3.70;;;3.40;;
11245;SDS011;59870;50.106;8.580;2022-08-01T09:56:20;3.78;;;3.53;;
11245;SDS011;59870;50.106;8.580;2022-08-01T09:58:52;3.55;;;3.35;;
11245;SDS011;59870;50.106;8.580;2022-08-01T10:01:28;3.80;;;3.33;;
11245;SDS011;59870;50.106;8.580;2022-08-01T10:04:14;3.60;;;3.40;;
11245;SDS011;59870;50.106;8.580;2022-08-01T10:06:45;3.40;;;3.20;;
11245;SDS011;59870;50.106;8.580;2022-08-01T10:09:26;3.67;;;3.40;;
11245;SDS011;59870;50.106;8.580;2022-08-01T10:12:06;3.47;;;3.28;;
11245;SDS011;59870;50.106;8.580;2022-08-01T10:14:42;3.10;;;2.90;;
11245;SDS011;59870;50.106;8.580;2022-08-01T10:17:13;2.85;;;2.65;;
11245;SDS011;59870;50.106;8.580;2022-08-01T10:19:46;3.22;;;3.00;;
11245;SDS011;59870;50.106;8.580;2022-08-01T10:22:17;3.22;;;3.03;;
11245;SDS011;59870;50.106;8.580;2022-08-01T10:24:47;3.03;;;2.92;;
11245;SDS011;59870;50.106;8.580;2022-08-01T10:27:16;3.10;;;2.90;;
11245;SDS011;59870;50.106;8.580;2022-08-01T10:30:04;3.15;;;2.92;;
11245;SDS011;59870;50.106;8.580;2022-08-01T10:32:50;7.43;;;2.95;;
11245;SDS011;59870;50.106;8.580;2022-08-01T10:35:21;2.75;;;2.55;;
11245;SDS011;59870;50.106;8.580;2022-08-01T10:38:08;2.75;;;2.65;;
11245;SDS011;59870;50.106;8.580;2022-08-01T10:40:40;2.73;;;2.53;;
11245;SDS011;59870;50.106;8.580;2022-08-01T10:43:09;2.80;;;2.60;;
11245;SDS011;59870;50.106;8.580;2022-08-01T10:45:37;2.63;;;2.40;;
11245;SDS011;59870;50.106;8.580;2022-08-01T10:48:18;2.30;;;2.20;;
11245;SDS011;59870;50.106;8.580;2022-08-01T10:50:51;2.70;;;2.60;;
11245;SDS011;59870;50.106;8.580;2022-08-01T10:53:21;2.58;;;2.47;;
11245;SDS011;59870;50.106;8.580;2022-08-01T10:56:08;2.67;;;2.47;;
11245;SDS011;59870;50.106;8.580;2022-08-01T10:58:39;2.80;;;2.60;;
11245;SDS011;59870;50.106;8.580;2022-08-01T11:01:14;3.13;;;2.92;;
11245;SDS011;59870;50.106;8.580;2022-08-01T11:03:42;2.85;;;2.75;;
11245;SDS011;59870;50.106;8.580;2022-08-01T11:06:26;3.13;;;2.92;;
11245;SDS011;59870;50.106;8.580;2022-08-01T11:09:20;3.13;;;2.92;;
11245;SDS011;59870;50.106;8.580;2022-08-01T11:12:10;3.42;;;2.92;;
11245;SDS011;59870;50.106;8.580;2022-08-01T11:17:30;3.05;;;2.85;;
11245;SDS011;59870;50.106;8.580;2022-08-01T11:20:05;2.90;;;2.80;;
11245;SDS011;59870;50.106;8.580;2022-08-01T11:28:24;2.67;;;2.47;;
11245;SDS011;59870;50.106;8.580;2022-08-01T11:38:46;2.83;;;2.63;;
11245;SDS011;59870;50.106;8.580;2022-08-01T11:41:40;2.47;;;2.38;;
11245;SDS011;59870;50.106;8.580;2022-08-01T11:44:21;2.60;;;2.33;;
11245;SDS011;59870;50.106;8.580;2022-08-01T11:54:53;2.33;;;2.22;;
11245;SDS011;59870;50.106;8.580;2022-08-01T11:57:24;3.00;;;2.15;;
11245;SDS011;59870;50.106;8.580;2022-08-01T12:00:10;2.22;;;2.13;;
11245;SDS011;59870;50.106;8.580;2022-08-01T12:02:58;2.67;;;2.58;;
11245;SDS011;59870;50.106;8.580;2022-08-01T12:05:26;3.05;;;2.10;;
11245;SDS011;59870;50.106;8.580;2022-08-01T12:07:57;2.50;;;2.40;;
11245;SDS011;59870;50.106;8.580;2022-08-01T12:10:29;2.90;;;2.70;;
11245;SDS011;59870;50.106;8.580;2022-08-01T12:13:13;2.38;;;2.22;;
11245;SDS011;59870;50.106;8.580;2022-08-01T12:15:40;1.98;;;1.88;;
11245;SDS011;59870;50.106;8.580;2022-08-01T12:18:08;2.58;;;2.30;;
11245;SDS011;59870;50.106;8.580;2022-08-01T12:20:41;2.80;;;2.60;;
11245;SDS011;59870;50.106;8.580;2022-08-01T12:23:22;1.90;;;1.80;;
11245;SDS011;59870;50.106;8.580;2022-08-01T12:25:51;2.20;;;2.08;;
11245;SDS011;59870;50.106;8.580;2022-08-01T12:28:19;2.17;;;2.08;;
11245;SDS011;59870;50.106;8.580;2022-08-01T12:30:48;2.53;;;2.42;;
11245;SDS011;59870;50.106;8.580;2022-08-01T12:33:17;2.30;;;2.20;;
11245;SDS011;59870;50.106;8.580;2022-08-01T12:35:45;2.28;;;2.17;;
11245;SDS011;59870;50.106;8.580;2022-08-01T12:38:16;2.83;;;1.90;;
11245;SDS011;59870;50.106;8.580;2022-08-01T12:40:47;2.23;;;2.10;;
11245;SDS011;59870;50.106;8.580;2022-08-01T12:43:21;1.85;;;1.75;;
11245;SDS011;59870;50.106;8.580;2022-08-01T12:45:55;2.42;;;2.33;;
11245;SDS011;59870;50.106;8.580;2022-08-01T12:48:25;3.45;;;2.00;;
11245;SDS011;59870;50.106;8.580;2022-08-01T12:50:53;2.40;;;1.87;;
11245;SDS011;59870;50.106;8.580;2022-08-01T12:53:24;2.10;;;2.00;;
11245;SDS011;59870;50.106;8.580;2022-08-01T12:56:30;1.95;;;1.85;;
11245;SDS011;59870;50.106;8.580;2022-08-01T12:58:59;2.20;;;1.95;;
11245;SDS011;59870;50.106;8.580;2022-08-01T13:02:07;1.70;;;1.60;;
11245;SDS011;59870;50.106;8.580;2022-08-01T13:04:48;3.78;;;1.95;;
11245;SDS011;59870;50.106;8.580;2022-08-01T13:07:17;2.33;;;2.05;;
11245;SDS011;59870;50.106;8.580;2022-08-01T13:09:51;1.70;;;1.60;;
11245;SDS011;59870;50.106;8.580;2022-08-01T13:12:19;2.38;;;2.17;;
11245;SDS011;59870;50.106;8.580;2022-08-01T13:14:46;1.90;;;1.80;;
11245;SDS011;59870;50.106;8.580;2022-08-01T13:17:29;2.65;;;1.73;;
11245;SDS011;59870;50.106;8.580;2022-08-01T13:20:01;1.60;;;1.50;;
11245;SDS011;59870;50.106;8.580;2022-08-01T13:22:33;1.90;;;1.80;;
11245;SDS011;59870;50.106;8.580;2022-08-01T13:27:48;2.58;;;2.00;;
11245;SDS011;59870;50.106;8.580;2022-08-01T13:30:19;4.53;;;1.95;;
11245;SDS011;59870;50.106;8.580;2022-08-01T13:32:58;4.03;;;2.13;;
11245;SDS011;59870;50.106;8.580;2022-08-01T13:35:27;1.95;;;1.85;;
11245;SDS011;59870;50.106;8.580;2022-08-01T13:37:54;1.63;;;1.50;;
11245;SDS011;59870;50.106;8.580;2022-08-01T13:40:24;2.30;;;2.10;;
11245;SDS011;59870;50.106;8.580;2022-08-01T13:42:54;1.90;;;1.80;;
11245;SDS011;59870;50.106;8.580;2022-08-01T13:45:23;2.08;;;1.98;;
11245;SDS011;59870;50.106;8.580;2022-08-01T13:48:09;1.83;;;1.73;;
11245;SDS011;59870;50.106;8.580;2022-08-01T13:50:44;2.00;;;1.90;;
11245;SDS011;59870;50.106;8.580;2022-08-01T13:53:32;1.90;;;1.80;;
11245;SDS011;59870;50.106;8.580;2022-08-01T13:56:00;2.05;;;1.95;;
11245;SDS011;59870;50.106;8.580;2022-08-01T13:58:28;1.70;;;1.60;;
11245;SDS011;59870;50.106;8.580;2022-08-01T14:00:55;2.03;;;1.92;;
11245;SDS011;59870;50.106;8.580;2022-08-01T14:03:23;2.30;;;1.87;;
11245;SDS011;59870;50.106;8.580;2022-08-01T14:06:00;2.65;;;1.98;;
11245;SDS011;59870;50.106;8.580;2022-08-01T14:08:30;1.97;;;1.87;;
11245;SDS011;59870;50.106;8.580;2022-08-01T14:10:58;1.80;;;1.70;;
11245;SDS011;59870;50.106;8.580;2022-08-01T14:13:25;2.10;;;1.83;;
11245;SDS011;59870;50.106;8.580;2022-08-01T14:16:02;2.30;;;2.10;;
11245;SDS011;59870;50.106;8.580;2022-08-01T14:18:30;2.10;;;1.83;;
11245;SDS011;59870;50.106;8.580;2022-08-01T14:20:58;4.50;;;2.25;;
11245;SDS011;59870;50.106;8.580;2022-08-01T14:23:31;2.20;;;1.93;;
11245;SDS011;59870;50.106;8.580;2022-08-01T14:25:58;2.78;;;2.60;;
11245;SDS011;59870;50.106;8.580;2022-08-01T14:28:37;2.75;;;2.30;;
11245;SDS011;59870;50.106;8.580;2022-08-01T14:31:06;2.10;;;2.00;;
11245;SDS011;59870;50.106;8.580;2022-08-01T14:33:34;2.07;;;1.70;;
11245;SDS011;59870;50.106;8.580;2022-08-01T14:36:02;2.83;;;1.88;;
11245;SDS011;59870;50.106;8.580;2022-08-01T14:38:50;1.73;;;1.63;;
11245;SDS011;59870;50.106;8.580;2022-08-01T14:41:18;2.30;;;2.20;;
11245;SDS011;59870;50.106;8.580;2022-08-01T14:43:45;1.92;;;1.83;;
11245;SDS011;59870;50.106;8.580;2022-08-01T14:46:13;2.28;;;2.17;;
11245;SDS011;59870;50.106;8.580;2022-08-01T14:48:41;2.30;;;2.20;;
11245;SDS011;59870;50.106;8.580;2022-08-01T14:51:09;2.30;;;2.20;;
11245;SDS011;59870;50.106;8.580;2022-08-01T14:53:37;2.28;;;2.17;;
11245;SDS011;59870;50.106;8.580;2022-08-01T14:56:08;4.55;;;1.92;;
11245;SDS011;59870;50.106;8.580;2022-08-01T14:58:36;2.67;;;2.38;;
11245;SDS011;59870;50.106;8.580;2022-08-01T15:01:04;2.07;;;1.97;;
11245;SDS011;59870;50.106;8.580;2022-08-01T15:03:32;2.27;;;2.07;;
11245;SDS011;59870;50.106;8.580;2022-08-01T15:06:00;2.50;;;2.33;;
11245;SDS011;59870;50.106;8.580;2022-08-01T15:08:28;2.80;;;2.60;;
11245;SDS011;59870;50.106;8.580;2022-08-01T15:10:56;2.42;;;2.33;;
11245;SDS011;59870;50.106;8.580;2022-08-01T15:13:24;2.67;;;2.42;;
11245;SDS011;59870;50.106;8.580;2022-08-01T15:15:51;2.50;;;2.40;;
11245;SDS011;59870;50.106;8.580;2022-08-01T15:18:19;2.30;;;2.20;;
11245;SDS011;59870;50.106;8.580;2022-08-01T15:20:48;2.50;;;2.40;;
11245;SDS011;59870;50.106;8.580;2022-08-01T15:23:15;5.45;;;2.47;;
11245;SDS011;59870;50.106;8.580;2022-08-01T15:25:43;2.50;;;2.30;;
11245;SDS011;59870;50.106;8.580;2022-08-01T15:28:10;2.78;;;2.58;;
11245;SDS011;59870;50.106;8.580;2022-08-01T15:30:38;3.42;;;2.60;;
11245;SDS011;59870;50.106;8.580;2022-08-01T15:33:06;3.17;;;2.80;;
11245;SDS011;59870;50.106;8.580;2022-08-01T15:35:33;2.80;;;2.60;;
11245;SDS011;59870;50.106;8.580;2022-08-01T15:38:01;2.88;;;2.60;;
11245;SDS011;59870;50.106;8.580;2022-08-01T15:40:29;3.00;;;2.85;;
11245;SDS011;59870;50.106;8.580;2022-08-01T15:43:01;2.70;;;2.53;;
11245;SDS011;59870;50.106;8.580;2022-08-01T15:45:28;2.58;;;2.47;;
11245;SDS011;59870;50.106;8.580;2022-08-01T15:48:14;2.85;;;2.65;;
11245;SDS011;59870;50.106;8.580;2022-08-01T15:50:42;2.80;;;2.60;;
11245;SDS011;59870;50.106;8.580;2022-08-01T15:53:09;2.47;;;2.33;;
11245;SDS011;59870;50.106;8.580;2022-08-01T15:55:37;3.55;;;2.50;;
11245;SDS011;59870;50.106;8.580;2022-08-01T15:58:05;2.23;;;2.13;;
11245;SDS011;59870;50.106;8.580;2022-08-01T16:00:56;2.53;;;2.42;;